createdAt,value
2022-12-15T00:01:59.848Z,-4.05
2022-12-15T00:04:44.696Z,-4.01
2022-12-15T00:07:26.910Z,-4.07
2022-12-15T00:10:09.108Z,-4.06
2022-12-15T00:12:51.309Z,-4.11
2022-12-15T00:15:33.663Z,-4.19
2022-12-15T00:18:19.834Z,-4.05
2022-12-15T00:21:04.619Z,-4.07
2022-12-15T00:23:46.782Z,-4.11
2022-12-15T00:26:28.999Z,-4.13
2022-12-15T00:29:11.497Z,-4.28
2022-12-15T00:31:53.813Z,-4.25
2022-12-15T00:34:36.052Z,-4.23
2022-12-15T00:37:20.894Z,-4.23
2022-12-15T00:39:58.936Z,-4.26
2022-12-15T00:42:30.456Z,-4.18
2022-12-15T00:45:00.624Z,-4.15
2022-12-15T00:47:27.897Z,-4.31
2022-12-15T00:50:10.069Z,-4.21
2022-12-15T00:52:54.944Z,-4.27
2022-12-15T00:55:37.155Z,-4.47
2022-12-15T00:58:19.372Z,-4.39
2022-12-15T01:01:01.574Z,-4.40
2022-12-15T01:03:43.923Z,-4.36
2022-12-15T01:06:27.966Z,-4.23
2022-12-15T01:09:13.469Z,-4.20
2022-12-15T01:11:55.862Z,-4.24
2022-12-15T01:14:38.094Z,-4.15
2022-12-15T01:17:20.714Z,-4.06
2022-12-15T01:20:02.920Z,-3.97
2022-12-15T01:22:32.711Z,-3.91
2022-12-15T01:25:05.061Z,-3.81
2022-12-15T01:27:35.379Z,-3.87
2022-12-15T01:30:05.214Z,-3.91
2022-12-15T01:32:35.057Z,-3.88
2022-12-15T01:35:04.914Z,-4.19
2022-12-15T01:37:35.135Z,-3.90
2022-12-15T01:40:21.563Z,-4.09
2022-12-15T01:42:51.662Z,-4.24
2022-12-15T01:45:49.932Z,-4.19
2022-12-15T01:48:27.277Z,-4.23
2022-12-15T01:51:04.096Z,-4.02
2022-12-15T01:53:38.371Z,-3.93
2022-12-15T01:56:12.307Z,-3.96
2022-12-15T01:58:45.762Z,-3.95
2022-12-15T02:01:15.545Z,-3.91
2022-12-15T02:03:46.851Z,-3.84
2022-12-15T02:06:18.085Z,-3.78
2022-12-15T02:08:49.971Z,-3.69
2022-12-15T02:11:46.308Z,-3.56
2022-12-15T02:14:23.789Z,-3.47
2022-12-15T02:17:07.594Z,-3.46
2022-12-15T02:20:02.360Z,-3.42
2022-12-15T02:22:44.329Z,-3.57
2022-12-15T02:25:33.377Z,-3.47
2022-12-15T02:28:11.154Z,-3.45
2022-12-15T02:31:09.437Z,-3.55
2022-12-15T02:33:47.717Z,-3.56
2022-12-15T02:36:26.943Z,-3.55
2022-12-15T02:38:56.800Z,-3.58
2022-12-15T02:41:42.229Z,-3.76
2022-12-15T02:44:15.920Z,-3.55
2022-12-15T02:47:07.485Z,-3.46
2022-12-15T02:49:49.884Z,-3.54
2022-12-15T02:52:35.112Z,-3.54
2022-12-15T02:55:18.479Z,-3.43
2022-12-15T02:57:57.140Z,-3.44
2022-12-15T03:00:27.399Z,-3.45
2022-12-15T03:02:59.981Z,-3.49
2022-12-15T03:05:29.897Z,-3.59
2022-12-15T03:07:59.662Z,-3.46
2022-12-15T03:10:29.659Z,-3.50
2022-12-15T03:12:59.434Z,-3.41
2022-12-15T03:15:34.889Z,-3.34
2022-12-15T03:18:07.925Z,-3.31
2022-12-15T03:20:38.868Z,-3.33
2022-12-15T03:23:08.621Z,-3.29
2022-12-15T03:25:38.363Z,-3.22
2022-12-15T03:28:08.399Z,-3.14
2022-12-15T03:30:38.317Z,-3.20
2022-12-15T03:33:10.865Z,-3.31
2022-12-15T03:35:40.633Z,-3.43
2022-12-15T03:38:10.453Z,-3.46
2022-12-15T03:40:40.197Z,-3.37
2022-12-15T03:43:09.933Z,-3.28
2022-12-15T03:45:39.746Z,-3.29
2022-12-15T03:48:12.187Z,-3.20
2022-12-15T03:50:41.933Z,-3.28
2022-12-15T03:53:11.742Z,-3.28
2022-12-15T03:55:41.523Z,-3.27
2022-12-15T03:58:11.327Z,-3.30
2022-12-15T04:00:41.595Z,-3.31
2022-12-15T04:03:14.734Z,-3.23
2022-12-15T04:05:44.578Z,-3.76
2022-12-15T04:08:14.384Z,-3.44
2022-12-15T04:10:44.144Z,-3.45
2022-12-15T04:13:14.597Z,-3.44
2022-12-15T04:15:44.377Z,-3.53
2022-12-15T04:18:16.826Z,-3.35
2022-12-15T04:20:44.071Z,-3.32
2022-12-15T04:23:13.870Z,-3.30
2022-12-15T04:25:56.085Z,-3.30
2022-12-15T04:28:38.444Z,-3.41
2022-12-15T04:31:23.618Z,-3.38
2022-12-15T04:34:11.770Z,-3.41
2022-12-15T04:36:55.595Z,-3.52
2022-12-15T04:39:37.903Z,-3.42
2022-12-15T04:42:20.659Z,-3.56
2022-12-15T04:45:04.864Z,-3.55
2022-12-15T04:47:47.098Z,-3.54
2022-12-15T04:50:32.068Z,-3.45
2022-12-15T04:53:22.624Z,-3.40
2022-12-15T04:56:04.805Z,-3.44
2022-12-15T04:58:47.002Z,-3.32
2022-12-15T05:01:29.279Z,-3.28
2022-12-15T05:04:11.579Z,-3.30
2022-12-15T05:06:56.406Z,-3.41
2022-12-15T05:09:38.621Z,-3.29
2022-12-15T05:12:21.102Z,-3.31
2022-12-15T05:15:03.355Z,-3.22
2022-12-15T05:17:46.119Z,-3.20
2022-12-15T05:20:28.396Z,-3.17
2022-12-15T05:23:13.637Z,-3.09
2022-12-15T05:25:55.939Z,-3.22
2022-12-15T05:28:38.357Z,-3.42
2022-12-15T05:31:21.955Z,-3.40
2022-12-15T05:33:51.738Z,-3.36
2022-12-15T05:36:21.532Z,-3.29
2022-12-15T05:38:55.024Z,-3.26
2022-12-15T05:41:25.025Z,-3.22
2022-12-15T05:43:54.878Z,-3.28
2022-12-15T05:46:24.900Z,-3.16
2022-12-15T05:48:54.730Z,-3.16
2022-12-15T05:51:24.478Z,-3.15
2022-12-15T05:53:57.251Z,-2.99
2022-12-15T05:56:28.551Z,-2.94
2022-12-15T05:58:59.292Z,-2.92
2022-12-15T06:01:31.046Z,-2.93
2022-12-15T06:04:01.643Z,-3.16
2022-12-15T06:06:35.256Z,-3.19
2022-12-15T06:09:09.018Z,-3.06
2022-12-15T06:11:42.139Z,-3.20
2022-12-15T06:14:12.181Z,-3.21
2022-12-15T06:16:50.046Z,-3.24
2022-12-15T06:19:22.569Z,-3.22
2022-12-15T06:21:56.169Z,-3.13
2022-12-15T06:24:28.754Z,-3.20
2022-12-15T06:26:59.415Z,-3.08
2022-12-15T06:29:29.418Z,-3.11
2022-12-15T06:31:59.299Z,-3.04
2022-12-15T06:34:29.312Z,-3.06
2022-12-15T06:37:00.134Z,-3.00
2022-12-15T06:39:35.726Z,-3.06
2022-12-15T06:42:05.663Z,-3.17
2022-12-15T06:44:35.514Z,-3.10
2022-12-15T06:47:10.287Z,-3.13
2022-12-15T06:49:40.198Z,-3.19
2022-12-15T06:52:11.107Z,-3.15
2022-12-15T06:54:44.556Z,-3.43
2022-12-15T06:57:18.164Z,-3.32
2022-12-15T06:59:48.254Z,-3.32
2022-12-15T07:02:26.890Z,-3.28
2022-12-15T07:05:04.247Z,-3.19
2022-12-15T07:07:34.141Z,-3.03
2022-12-15T07:10:11.385Z,-2.89
2022-12-15T07:12:41.182Z,-2.90
2022-12-15T07:15:13.403Z,-2.79
2022-12-15T07:17:43.581Z,-2.76
2022-12-15T07:20:14.682Z,-2.68
2022-12-15T07:22:46.498Z,-2.63
2022-12-15T07:25:22.906Z,-2.91
2022-12-15T07:27:53.775Z,-2.85
2022-12-15T07:30:24.730Z,-2.80
2022-12-15T07:32:54.609Z,-2.67
2022-12-15T07:35:28.230Z,-2.67
2022-12-15T07:37:59.129Z,-2.69
2022-12-15T07:40:33.610Z,-2.74
2022-12-15T07:43:04.402Z,-2.68
2022-12-15T07:45:34.240Z,-2.76
2022-12-15T07:48:04.105Z,-2.82
2022-12-15T07:50:33.923Z,-2.98
2022-12-15T07:53:03.739Z,-2.66
2022-12-15T07:56:04.979Z,-2.63
2022-12-15T07:58:26.124Z,-2.72
2022-12-15T08:00:56.563Z,-2.92
2022-12-15T08:03:26.668Z,-2.83
2022-12-15T08:06:02.027Z,-2.70
2022-12-15T08:08:35.870Z,-2.62
2022-12-15T08:11:11.130Z,-2.50
2022-12-15T08:16:33.364Z,-2.57
2022-12-15T08:19:03.251Z,-2.49
2022-12-15T08:21:33.915Z,-2.44
2022-12-15T08:24:04.304Z,-2.68
2022-12-15T08:26:37.930Z,-2.59
2022-12-15T08:32:03.075Z,-2.40
2022-12-15T08:34:33.183Z,-2.41
2022-12-15T08:37:03.167Z,-2.28
2022-12-15T08:39:33.029Z,-2.39
2022-12-15T08:42:05.440Z,-2.17
2022-12-15T08:44:35.405Z,-2.34
2022-12-15T08:47:05.436Z,-2.21
2022-12-15T08:49:35.263Z,-2.02
2022-12-15T08:52:05.087Z,-1.96
2022-12-15T08:54:35.175Z,-1.99
2022-12-15T08:57:08.053Z,-1.73
2022-12-15T08:59:37.926Z,-1.74
2022-12-15T09:02:08.099Z,-1.66
2022-12-15T09:04:40.923Z,-1.82
2022-12-15T09:07:10.776Z,-1.63
2022-12-15T09:09:41.513Z,-1.41
2022-12-15T09:12:15.329Z,-1.41
2022-12-15T09:14:45.216Z,-1.32
2022-12-15T09:17:15.898Z,-1.37
2022-12-15T09:19:45.851Z,-1.24
2022-12-15T09:22:15.653Z,-1.09
2022-12-15T09:24:45.445Z,-0.99
2022-12-15T09:27:17.846Z,-1.12
2022-12-15T09:29:47.656Z,-1.05
2022-12-15T09:32:17.626Z,-0.91
2022-12-15T09:34:47.569Z,-0.97
2022-12-15T09:37:20.518Z,-0.85
2022-12-15T09:39:50.540Z,-0.87
2022-12-15T09:42:27.874Z,-0.95
2022-12-15T09:45:04.808Z,-1.06
2022-12-15T09:47:43.514Z,-0.78
2022-12-15T09:50:15.640Z,-0.91
2022-12-15T09:52:51.842Z,-0.86
2022-12-15T09:55:25.475Z,-0.70
2022-12-15T09:57:59.810Z,-0.73
2022-12-15T10:00:35.900Z,-0.69
2022-12-15T10:03:35.776Z,-0.63
2022-12-15T10:06:17.185Z,-0.95
2022-12-15T10:08:51.194Z,-0.67
2022-12-15T10:11:28.991Z,-0.49
2022-12-15T10:14:10.416Z,-0.47
2022-12-15T10:16:53.542Z,-0.45
2022-12-15T10:19:32.512Z,-0.50
2022-12-15T10:22:02.825Z,-0.47
2022-12-15T10:25:08.613Z,-0.44
2022-12-15T10:27:44.198Z,-0.38
2022-12-15T10:30:17.904Z,-0.34
2022-12-15T10:32:53.691Z,-0.22
2022-12-15T10:35:27.720Z,-0.19
2022-12-15T10:38:01.675Z,-0.25
2022-12-15T10:40:57.082Z,-0.17
2022-12-15T10:43:31.209Z,-0.15
2022-12-15T10:46:14.471Z,-0.27
2022-12-15T10:48:48.567Z,-0.23
2022-12-15T10:51:24.579Z,-0.14
2022-12-15T10:53:56.723Z,-0.10
2022-12-15T10:56:33.283Z,-0.11
2022-12-15T10:59:06.325Z,0.09
2022-12-15T11:01:38.850Z,0.07
2022-12-15T11:04:28.428Z,0.09
2022-12-15T11:07:02.282Z,-0.03
2022-12-15T11:09:36.857Z,0.07
2022-12-15T11:12:32.079Z,0.13
2022-12-15T11:15:01.979Z,0.19
2022-12-15T11:17:44.494Z,0.29
2022-12-15T11:20:23.530Z,0.19
2022-12-15T11:22:59.658Z,0.31
2022-12-15T11:25:38.039Z,0.33
2022-12-15T11:28:17.266Z,0.38
2022-12-15T11:30:52.132Z,0.43
2022-12-15T11:33:25.773Z,0.07
2022-12-15T11:36:10.054Z,0.44
2022-12-15T11:38:46.506Z,0.42
2022-12-15T11:41:31.072Z,0.51
2022-12-15T11:44:27.288Z,0.60
2022-12-15T11:47:10.160Z,0.49
2022-12-15T11:50:09.638Z,0.56
2022-12-15T11:52:53.117Z,0.52
2022-12-15T11:55:39.189Z,0.55
2022-12-15T11:58:48.632Z,0.31
2022-12-15T12:01:27.640Z,0.62
2022-12-15T12:04:08.046Z,0.82
2022-12-15T12:06:50.902Z,0.77
2022-12-15T12:09:33.119Z,0.83
2022-12-15T12:12:14.533Z,0.70
2022-12-15T12:15:00.643Z,0.83
2022-12-15T12:17:41.897Z,0.90
2022-12-15T12:20:19.456Z,0.71
2022-12-15T12:23:02.388Z,0.95
2022-12-15T12:25:37.827Z,0.89
2022-12-15T12:28:17.231Z,1.12
2022-12-15T12:30:50.432Z,1.08
2022-12-15T12:33:32.870Z,1.00
2022-12-15T12:36:07.354Z,1.19
2022-12-15T12:38:46.267Z,1.18
2022-12-15T12:41:30.135Z,1.19
2022-12-15T12:44:03.879Z,1.11
2022-12-15T12:46:39.631Z,1.19
2022-12-15T12:49:26.070Z,1.28
2022-12-15T12:51:59.605Z,1.37
2022-12-15T12:54:55.095Z,1.26
2022-12-15T12:57:50.121Z,1.21
2022-12-15T13:00:26.600Z,1.17
2022-12-15T13:03:17.918Z,1.26
2022-12-15T13:05:50.537Z,1.28
2022-12-15T13:08:53.607Z,1.22
2022-12-15T13:11:58.156Z,1.21
2022-12-15T13:14:38.460Z,1.06
2022-12-15T13:17:27.451Z,0.98
2022-12-15T13:20:18.679Z,1.01
2022-12-15T13:22:48.781Z,0.91
2022-12-15T13:25:38.136Z,1.11
2022-12-15T13:28:42.790Z,1.12
2022-12-15T13:31:49.765Z,1.17
2022-12-15T13:34:27.126Z,1.28
2022-12-15T13:37:05.545Z,1.32
2022-12-15T13:39:57.828Z,1.06
2022-12-15T13:42:56.266Z,1.15
2022-12-15T13:45:58.166Z,1.20
2022-12-15T13:48:34.744Z,1.36
2022-12-15T13:51:27.320Z,1.37
2022-12-15T13:54:02.147Z,1.33
2022-12-15T13:56:47.518Z,1.51
2022-12-15T13:59:29.843Z,1.48
2022-12-15T14:02:24.979Z,1.53
2022-12-15T14:05:21.119Z,1.45
2022-12-15T14:07:54.916Z,1.59
2022-12-15T14:10:28.199Z,1.57
2022-12-15T14:13:00.805Z,1.56
2022-12-15T14:15:33.787Z,1.60
2022-12-15T14:18:06.676Z,1.53
2022-12-15T14:20:43.346Z,1.65
2022-12-15T14:23:21.644Z,1.73
2022-12-15T14:26:07.234Z,1.78
2022-12-15T14:28:38.786Z,1.76
2022-12-15T14:31:14.139Z,1.74
2022-12-15T14:33:50.643Z,1.67
2022-12-15T14:36:23.482Z,1.78
2022-12-15T14:38:55.373Z,2.58
2022-12-15T14:41:27.830Z,2.26
2022-12-15T14:46:54.966Z,1.83
2022-12-15T14:49:31.137Z,1.71
2022-12-15T14:52:05.129Z,1.57
2022-12-15T14:54:38.341Z,1.35
2022-12-15T14:57:17.574Z,1.25
2022-12-15T14:59:51.343Z,1.20
2022-12-15T15:02:26.887Z,0.97
2022-12-15T15:03:06.023Z,2.11
2022-12-15T15:05:05.413Z,1.23
2022-12-15T15:07:35.965Z,1.16
2022-12-15T15:10:06.652Z,1.19
2022-12-15T15:12:47.217Z,1.22
2022-12-15T15:15:19.232Z,1.13
2022-12-15T15:17:53.798Z,1.19
2022-12-15T15:20:30.197Z,1.09
2022-12-15T15:23:16.001Z,1.18
2022-12-15T15:25:53.971Z,1.16
2022-12-15T15:28:28.064Z,0.98
2022-12-15T15:31:05.281Z,1.06
2022-12-15T15:33:35.484Z,1.04
2022-12-15T15:36:14.018Z,1.00
2022-12-15T15:38:46.772Z,0.72
2022-12-15T15:41:20.087Z,0.75
2022-12-15T15:43:50.023Z,0.78
2022-12-15T15:46:25.588Z,0.79
2022-12-15T15:48:58.639Z,0.77
2022-12-15T15:51:33.202Z,0.73
2022-12-15T15:54:05.605Z,0.30
2022-12-15T15:56:35.415Z,0.42
2022-12-15T15:59:13.541Z,0.52
2022-12-15T16:01:43.549Z,0.46
2022-12-15T16:04:13.467Z,0.48
2022-12-15T16:06:47.829Z,0.50
2022-12-15T16:09:18.998Z,0.35
2022-12-15T16:11:49.463Z,0.31
2022-12-15T16:14:20.390Z,0.34
2022-12-15T16:16:53.972Z,0.40
2022-12-15T16:19:23.989Z,0.39
2022-12-15T16:21:56.369Z,0.49
2022-12-15T16:24:26.135Z,0.51
2022-12-15T16:26:55.881Z,0.53
2022-12-15T16:29:25.973Z,0.54
2022-12-15T16:31:56.129Z,0.55
2022-12-15T16:34:25.997Z,0.49
2022-12-15T16:36:58.558Z,0.45
2022-12-15T16:39:31.915Z,0.46
2022-12-15T16:42:02.993Z,0.31
2022-12-15T16:44:33.198Z,0.28
2022-12-15T16:47:04.039Z,0.37
2022-12-15T16:49:39.853Z,0.34
2022-12-15T16:52:22.769Z,0.16
2022-12-15T16:54:53.742Z,0.33
2022-12-15T16:57:23.535Z,-0.19
2022-12-15T16:59:57.113Z,0.42
2022-12-15T17:02:30.335Z,0.94
2022-12-15T17:05:00.214Z,0.76
2022-12-15T17:07:33.557Z,0.61
2022-12-15T17:10:08.370Z,0.49
2022-12-15T17:12:38.202Z,0.34
2022-12-15T17:15:21.126Z,0.63
2022-12-15T17:17:52.694Z,0.41
2022-12-15T17:20:30.976Z,0.32
2022-12-15T17:23:10.491Z,0.20
2022-12-15T17:28:37.849Z,0.08
2022-12-15T17:31:07.951Z,0.05
2022-12-15T17:33:37.978Z,0.00
2022-12-15T17:36:18.987Z,0.06
2022-12-15T17:38:55.921Z,0.06
2022-12-15T17:41:58.207Z,0.03
2022-12-15T17:44:39.290Z,-0.05
2022-12-15T17:47:10.652Z,-0.16
2022-12-15T17:49:41.898Z,-0.10
2022-12-15T17:52:24.273Z,-0.16
2022-12-15T17:54:59.259Z,-0.11
2022-12-15T17:57:31.622Z,-0.14
2022-12-15T18:00:02.030Z,-0.16
2022-12-15T18:02:35.271Z,-0.17
2022-12-15T18:05:07.539Z,-0.12
2022-12-15T18:07:37.671Z,-0.15
2022-12-15T18:10:24.051Z,-0.12
2022-12-15T18:12:54.009Z,-0.19
2022-12-15T18:15:25.565Z,-0.23
2022-12-15T18:17:58.134Z,-0.24
2022-12-15T18:20:34.921Z,-0.24
2022-12-15T18:23:04.822Z,-0.39
2022-12-15T18:25:37.150Z,-0.31
2022-12-15T18:28:20.036Z,-0.30
2022-12-15T18:30:52.252Z,-0.49
2022-12-15T18:33:22.336Z,-0.33
2022-12-15T18:35:54.151Z,-0.35
2022-12-15T18:38:26.300Z,-0.36
2022-12-15T18:41:02.188Z,-0.46
2022-12-15T18:43:34.471Z,-0.47
2022-12-15T18:46:05.419Z,-0.52
2022-12-15T18:48:37.706Z,-0.53
2022-12-15T18:51:18.029Z,-0.49
2022-12-15T18:53:50.500Z,-0.55
2022-12-15T18:56:25.243Z,-0.50
2022-12-15T18:58:56.073Z,-0.53
2022-12-15T19:01:26.008Z,-0.66
2022-12-15T19:03:56.987Z,-0.54
2022-12-15T19:06:35.042Z,-0.53
2022-12-15T19:09:05.862Z,-0.53
2022-12-15T19:11:38.209Z,-0.53
2022-12-15T19:14:38.011Z,-0.89
2022-12-15T19:17:26.273Z,-0.55
2022-12-15T19:20:09.437Z,-0.57
2022-12-15T19:22:41.234Z,-0.63
2022-12-15T19:25:15.286Z,-0.65
2022-12-15T19:27:50.063Z,-0.64
2022-12-15T19:30:22.189Z,-0.64
2022-12-15T19:32:52.734Z,-0.92
2022-12-15T19:35:30.072Z,-0.52
2022-12-15T19:38:03.962Z,0.05
2022-12-15T19:40:35.917Z,0.23
2022-12-15T19:43:08.432Z,0.17
2022-12-15T19:45:39.287Z,-0.06
2022-12-15T19:48:10.122Z,-0.02
2022-12-15T19:50:40.745Z,-0.02
2022-12-15T19:53:17.556Z,-0.07
2022-12-15T19:55:47.529Z,-0.09
2022-12-15T19:58:30.961Z,-0.10
2022-12-15T20:01:03.267Z,-0.14
2022-12-15T20:03:34.122Z,-0.19
2022-12-15T20:06:05.518Z,-0.11
2022-12-15T20:08:38.295Z,-0.13
2022-12-15T20:11:16.909Z,-0.17
2022-12-15T20:13:51.058Z,-0.23
2022-12-15T20:16:22.980Z,-0.46
2022-12-15T20:18:56.259Z,-0.51
2022-12-15T20:21:34.035Z,-0.62
2022-12-15T20:24:09.402Z,-0.52
2022-12-15T20:26:42.091Z,-0.61
2022-12-15T20:29:27.250Z,-0.71
2022-12-15T20:31:59.067Z,-0.65
2022-12-15T20:34:29.874Z,-0.55
2022-12-15T20:37:00.945Z,-0.50
2022-12-15T20:39:32.835Z,-0.61
2022-12-15T20:42:02.667Z,-0.63
2022-12-15T20:44:36.055Z,-1.07
2022-12-15T20:47:06.852Z,-0.68
2022-12-15T20:49:37.704Z,-0.83
2022-12-15T20:52:08.525Z,-0.80
2022-12-15T20:54:39.403Z,-0.83
2022-12-15T20:57:09.226Z,-0.89
2022-12-15T20:59:42.635Z,-0.89
2022-12-15T21:02:21.393Z,-0.98
2022-12-15T21:04:53.422Z,0.64
2022-12-15T21:07:24.139Z,-0.39
2022-12-15T21:09:56.098Z,-0.53
2022-12-15T21:12:28.187Z,-0.65
2022-12-15T21:15:01.570Z,-0.69
2022-12-15T21:17:34.327Z,-0.72
2022-12-15T21:20:10.029Z,-0.80
2022-12-15T21:22:41.000Z,-0.89
2022-12-15T21:25:22.766Z,-0.90
2022-12-15T21:27:53.486Z,-1.02
2022-12-15T21:30:26.326Z,-1.11
2022-12-15T21:32:56.071Z,-1.06
2022-12-15T21:38:31.581Z,-1.28
2022-12-15T21:41:04.761Z,-1.25
2022-12-15T21:43:38.067Z,-1.25
2022-12-15T21:46:17.479Z,-1.55
2022-12-15T21:49:00.146Z,-1.42
2022-12-15T21:51:32.990Z,-1.56
2022-12-15T21:54:03.054Z,-1.56
2022-12-15T21:56:32.843Z,-1.86
2022-12-15T21:59:03.630Z,-1.73
2022-12-15T22:01:37.137Z,-1.78
2022-12-15T22:04:18.039Z,-1.75
2022-12-15T22:06:50.431Z,-1.83
2022-12-15T22:09:22.897Z,-1.79
2022-12-15T22:11:55.707Z,-1.88
2022-12-15T22:14:28.511Z,-1.88
2022-12-15T22:17:02.966Z,-2.31
2022-12-15T22:19:32.721Z,-2.03
2022-12-15T22:22:02.458Z,-2.16
2022-12-15T22:24:32.165Z,-2.23
2022-12-15T22:27:02.914Z,-2.09
2022-12-15T22:29:35.502Z,-2.19
2022-12-15T22:32:14.317Z,-2.23
2022-12-15T22:34:44.548Z,-2.24
2022-12-15T22:37:15.835Z,-2.32
2022-12-15T22:39:45.679Z,-2.47
2022-12-15T22:42:19.131Z,-2.54
2022-12-15T22:44:51.068Z,-2.90
2022-12-15T22:47:24.107Z,-2.72
2022-12-15T22:49:55.005Z,-2.87
2022-12-15T22:52:26.097Z,-2.71
2022-12-15T22:54:58.344Z,-2.70
2022-12-15T22:57:30.836Z,-2.60
2022-12-15T23:00:07.449Z,-2.57
2022-12-15T23:02:44.342Z,-2.54
2022-12-15T23:05:19.423Z,-2.57
2022-12-15T23:07:49.997Z,-2.62
2022-12-15T23:10:35.926Z,-2.63
2022-12-15T23:13:05.805Z,-2.63
2022-12-15T23:15:48.403Z,-2.56
2022-12-15T23:18:21.839Z,-2.56
2022-12-15T23:20:54.025Z,-2.62
2022-12-15T23:23:25.967Z,-2.63
2022-12-15T23:25:57.697Z,-2.63
2022-12-15T23:28:27.551Z,-2.65
2022-12-15T23:30:58.211Z,-2.79
2022-12-15T23:33:32.896Z,-2.91
2022-12-15T23:36:05.243Z,-2.78
2022-12-15T23:38:35.114Z,-3.18
2022-12-15T23:41:04.958Z,-2.78
2022-12-15T23:43:37.820Z,-2.80
2022-12-15T23:46:09.679Z,-3.01
2022-12-15T23:48:45.659Z,-3.02
2022-12-15T23:51:18.442Z,-2.98
2022-12-15T23:53:50.455Z,-2.99
2022-12-15T23:56:24.027Z,-3.06
2022-12-15T23:58:57.740Z,-3.31
